Flight Track Log - Related Links

Times and Time Zones

All times are in EDT time to prevent confusion due to time zone crossing. See the SKW4542 flight status page for this flight to view local times or setup timezone preferences in your user account.

Time Position Orientation Groundspeed Altitude Reporting Facility
EDT Latitude Longitude Course Direction KTS MPH feet Rate Location/Type
Thu 07:11:10 PM 40.8033 -111.9633 37° Northeast 155 178 5,000  Level Salt Lake Center
Thu 07:12:23 PM 40.8653 -111.9708 355° North 199 229 7,100 2,154 Climbing Salt Lake Center
Thu 07:13:07 PM 40.9189 -111.9781 354° North 245 282 9,200 3,113 Climbing Salt Lake Center
Thu 07:14:00 PM 41.1587 -111.8850 43° Northeast  Level FlightAware Approximate
Thu 07:14:09 PM 40.9936 -111.9900 353° North 264 304 12,600  Level Salt Lake Center
Thu 07:15:00 PM 41.2413 -111.8087 37° Northeast  Level FlightAware Approximate
Thu 07:15:10 PM 41.0683 -112.0011 354° North 268 308 15,400  Level Salt Lake Center
Thu 07:16:00 PM 41.3296 -111.7371 37° Northeast  Level FlightAware Approximate
Thu 07:16:12 PM 41.1508 -112.0022 359° North 297 342 17,000  Level Salt Lake Center
Thu 07:17:14 PM 41.2425 -112.0067 358° North 325 374 18,200 1,610 Climbing Salt Lake Center
Thu 07:18:15 PM 41.3358 -112.0086 359° North 334 384 20,300 1,707 Climbing Salt Lake Center
Thu 07:19:17 PM 41.4283 -112.0111 359° North 334 384 21,700 1,306 Climbing Salt Lake Center
Thu 07:20:19 PM 41.5258 -112.0128 359° North 348 400 23,000 629 Climbing Salt Lake Center
Thu 07:21:21 PM 41.6281 -112.0158 359° North 368 423 23,000 634 Level Salt Lake Center
Thu 07:22:22 PM 41.7308 -112.0197 358° North 370 426 24,300 1,463 Climbing Salt Lake Center
Thu 07:23:24 PM 41.8522 -111.9994 North 364 419 26,000 823 Climbing Salt Lake Center
Thu 07:24:26 PM 41.9581 -111.9772 North 381 438 26,000  Level Salt Lake Center
Thu 07:25:28 PM 42.0617 -111.9586 North 377 434 26,000  Level Salt Lake Center
Thu 07:26:29 PM 42.1644 -111.9372 North 374 430 26,000  Level Salt Lake Center
Thu 07:27:31 PM 42.2664 -111.9328 North 366 421 26,000  Level Salt Lake Center
Thu 07:28:33 PM 42.3664 -111.9461 354° North 362 417 26,000  Level Salt Lake Center
Thu 07:29:35 PM 42.4669 -111.9564 356° North 362 417 26,000  Level Salt Lake Center
Thu 07:30:36 PM 42.5878 -111.9692 356° North 363 418 26,000 -439 Level Salt Lake Center
Thu 07:31:38 PM 42.6886 -111.9803 355° North 364 419 25,100 -1,694 Descending Salt Lake Center
Thu 07:32:40 PM 42.7867 -111.9911 355° North 353 406 22,500 -2,419 Descending Salt Lake Center
Thu 07:33:42 PM 42.8772 -111.9992 356° North 343 395 20,100 -2,341 Descending Salt Lake Center
Thu 07:34:43 PM 42.9622 -112.0078 356° North 326 375 17,700 -2,293 Descending Salt Lake Center
Thu 07:35:45 PM 43.0600 -112.0150 357° North 318 366 15,400 -2,468 Descending Salt Lake Center
Thu 07:36:47 PM 43.1564 -112.0283 354° North 312 359 12,600 -2,371 Descending Salt Lake Center
Thu 07:37:49 PM 43.2383 -112.0381 355° North 310 357 10,500 -1,887 Descending Salt Lake Center
Thu 07:38:51 PM 43.3289 -112.0514 354° North 302 348 8,700 -1,561 Descending Salt Lake Center
Thu 07:39:52 PM 43.4000 -112.0597 355° North 286 329 7,300 -1,220 Descending Salt Lake Center
Thu 07:40:54 PM 43.4739 -112.0483 North 259 298 6,200 -484 Descending Salt Lake Center
Thu 07:41:56 PM 43.5197 -111.9942 41° Northeast 235 270 6,300 97 Climbing Salt Lake Center

Login

Don't have an account? Register now (free) for customized features, flight alerts, and more!